createdAt,value
2023-05-15T00:01:58.407Z,86055.56
2023-05-15T00:04:27.401Z,86312.47
2023-05-15T00:06:57.374Z,86569.41
2023-05-15T00:09:25.835Z,86826.34
2023-05-15T00:11:54.273Z,86569.41
2023-05-15T00:14:22.862Z,86312.47
2023-05-15T00:16:51.360Z,85028.06
2023-05-15T00:19:19.841Z,85284.91
2023-05-15T00:21:48.479Z,86312.47
2023-05-15T00:24:18.653Z,86826.34
2023-05-15T00:26:47.228Z,86826.34
2023-05-15T00:29:15.742Z,87854.38
2023-05-15T00:31:44.353Z,88111.41
2023-05-15T00:34:13.074Z,88625.56
2023-05-15T00:36:41.732Z,89139.81
2023-05-15T00:39:10.166Z,89911.31
2023-05-15T00:41:42.034Z,89396.97
2023-05-15T00:44:12.618Z,90425.72
2023-05-15T00:46:41.306Z,90682.97
2023-05-15T00:49:13.760Z,91197.50
2023-05-15T00:51:43.369Z,92226.81
2023-05-15T00:54:12.473Z,92484.19
2023-05-15T00:56:44.596Z,93513.91
2023-05-15T00:59:14.669Z,93513.91
2023-05-15T01:01:45.339Z,93771.38
2023-05-15T01:04:14.094Z,95059.00
2023-05-15T01:06:43.616Z,95574.19
2023-05-15T01:09:15.270Z,96347.13
2023-05-15T01:11:48.139Z,96347.13
2023-05-15T01:14:16.644Z,96347.13
2023-05-15T01:16:46.651Z,97377.97
2023-05-15T01:19:15.903Z,97377.97
2023-05-15T01:22:20.607Z,97377.97
2023-05-15T01:25:19.289Z,98151.31
2023-05-15T01:27:52.774Z,98924.81
2023-05-15T01:30:28.437Z,98924.81
2023-05-15T01:33:04.790Z,98924.81
2023-05-15T01:35:39.808Z,98666.94
2023-05-15T01:38:16.810Z,98924.81
2023-05-15T01:40:49.063Z,98924.81
2023-05-15T01:43:23.091Z,99182.69
2023-05-15T01:45:51.834Z,99698.47
2023-05-15T01:48:21.848Z,100988.31
2023-05-15T01:50:52.981Z,100988.31
2023-05-15T01:53:22.195Z,101246.34
2023-05-15T01:55:52.145Z,100730.31
2023-05-15T01:58:22.840Z,100730.31
2023-05-15T02:00:52.715Z,100472.31
2023-05-15T02:03:21.724Z,100472.31
2023-05-15T02:05:51.991Z,100472.31
2023-05-15T02:08:22.327Z,100730.31
2023-05-15T02:10:51.604Z,100988.31
2023-05-15T02:13:23.646Z,100472.31
2023-05-15T02:15:52.214Z,100988.31
2023-05-15T02:18:20.872Z,101246.34
2023-05-15T02:20:49.432Z,100988.31
2023-05-15T02:23:18.117Z,100730.31
2023-05-15T02:26:05.873Z,101246.34
2023-05-15T02:28:46.480Z,102278.66
2023-05-15T02:31:24.474Z,102020.53
2023-05-15T02:34:00.514Z,102278.66
2023-05-15T02:36:34.310Z,102278.66
2023-05-15T02:39:06.567Z,102278.66
2023-05-15T02:41:38.227Z,102536.75
2023-05-15T02:44:09.643Z,103053.06
2023-05-15T02:46:39.231Z,102536.75
2023-05-15T02:49:15.019Z,102536.75
2023-05-15T02:51:43.962Z,102794.91
2023-05-15T02:54:13.004Z,103053.06
2023-05-15T02:56:41.518Z,102278.66
2023-05-15T02:59:13.156Z,103311.25
2023-05-15T03:01:41.739Z,103053.06
2023-05-15T03:04:10.598Z,101762.47
2023-05-15T03:06:39.255Z,102794.91
2023-05-15T03:09:08.481Z,102278.66
2023-05-15T03:11:37.038Z,102020.53
2023-05-15T03:14:05.542Z,103053.06
2023-05-15T03:16:37.141Z,102536.75
2023-05-15T03:19:05.925Z,102794.91
2023-05-15T03:21:35.072Z,103053.06
2023-05-15T03:24:03.629Z,102278.66
2023-05-15T03:26:32.188Z,104085.91
2023-05-15T03:29:02.214Z,103569.44
2023-05-15T03:31:30.740Z,103311.25
2023-05-15T03:34:00.547Z,102794.91
2023-05-15T03:36:29.148Z,103827.66
2023-05-15T03:38:57.595Z,103311.25
2023-05-15T03:41:26.210Z,104344.16
2023-05-15T03:43:54.719Z,104602.44
2023-05-15T03:46:23.487Z,103827.66
2023-05-15T03:48:51.957Z,104085.91
2023-05-15T03:51:21.788Z,104602.44
2023-05-15T03:53:50.748Z,104085.91
2023-05-15T03:56:19.731Z,105894.09
2023-05-15T03:58:48.688Z,107703.22
2023-05-15T04:01:17.540Z,108220.28
2023-05-15T04:03:45.982Z,107703.22
2023-05-15T04:06:14.479Z,108478.84
2023-05-15T04:08:44.398Z,109254.63
2023-05-15T04:11:13.128Z,109771.94
2023-05-15T04:13:41.858Z,109254.63
2023-05-15T04:16:10.462Z,109513.28
2023-05-15T04:18:38.906Z,110030.59
2023-05-15T04:21:07.687Z,110289.28
2023-05-15T04:23:36.138Z,111065.50
2023-05-15T04:26:06.175Z,111324.28
2023-05-15T04:28:34.750Z,111583.06
2023-05-15T04:31:03.301Z,111583.06
2023-05-15T04:33:31.828Z,111583.06
2023-05-15T04:36:00.895Z,111841.88
2023-05-15T04:38:29.266Z,111841.88
2023-05-15T04:40:58.104Z,111841.88
2023-05-15T04:43:28.005Z,111841.88
2023-05-15T04:45:56.612Z,111583.06
2023-05-15T04:48:25.148Z,111324.28
2023-05-15T04:50:53.659Z,112100.69
2023-05-15T04:53:22.074Z,111583.06
2023-05-15T04:55:51.805Z,110030.59
2023-05-15T04:58:20.469Z,110030.59
2023-05-15T05:00:50.709Z,110289.28
2023-05-15T05:03:19.596Z,108478.84
2023-05-15T05:05:48.525Z,108737.41
2023-05-15T05:08:17.021Z,107961.72
2023-05-15T05:10:45.392Z,107186.22
2023-05-15T05:13:14.161Z,105635.72
2023-05-15T05:15:42.785Z,106410.88
2023-05-15T05:18:12.657Z,105119.03
2023-05-15T05:20:41.161Z,104602.44
2023-05-15T05:23:09.753Z,103827.66
2023-05-15T05:25:38.303Z,102536.75
2023-05-15T05:28:06.862Z,104085.91
2023-05-15T05:30:35.466Z,103569.44
2023-05-15T05:33:04.208Z,103827.66
2023-05-15T05:35:34.190Z,103311.25
2023-05-15T05:38:02.723Z,104860.72
2023-05-15T05:40:31.484Z,102020.53
2023-05-15T05:43:01.756Z,97893.50
2023-05-15T05:45:30.660Z,97120.22
2023-05-15T05:47:59.634Z,95831.81
2023-05-15T05:50:28.223Z,97893.50
2023-05-15T05:52:58.028Z,95831.81
2023-05-15T05:55:26.961Z,97377.97
2023-05-15T05:57:55.782Z,95574.19
2023-05-15T06:00:25.451Z,94543.91
2023-05-15T06:02:58.516Z,94286.38
2023-05-15T06:05:27.672Z,92999.00
2023-05-15T06:07:58.082Z,91197.50
2023-05-15T06:10:27.174Z,93513.91
2023-05-15T06:12:55.841Z,88368.50
2023-05-15T06:15:24.726Z,89139.81
2023-05-15T06:17:53.588Z,86569.41
2023-05-15T06:20:22.265Z,86055.56
2023-05-15T06:22:50.735Z,82974.03
2023-05-15T06:25:21.062Z,82717.38
2023-05-15T06:27:49.606Z,83744.16
2023-05-15T06:30:18.225Z,79638.84
2023-05-15T06:32:47.425Z,78869.66
2023-05-15T06:35:16.400Z,78356.94
2023-05-15T06:37:44.993Z,76306.91
2023-05-15T06:40:14.016Z,75282.31
2023-05-15T06:42:43.929Z,75026.22
2023-05-15T06:45:14.290Z,71187.13
2023-05-15T06:47:42.900Z,75794.56
2023-05-15T06:50:12.037Z,68582.16
2023-05-15T06:52:40.660Z,66869.25
2023-05-15T06:55:10.009Z,65592.13
2023-05-15T06:57:38.710Z,63119.03
2023-05-15T07:00:10.129Z,65213.06
2023-05-15T07:02:38.879Z,63890.69
2023-05-15T07:05:09.033Z,62652.53
2023-05-15T07:07:37.712Z,63547.72
2023-05-15T07:10:07.243Z,62469.16
2023-05-15T07:12:36.020Z,62656.53
2023-05-15T07:15:04.823Z,60456.50
2023-05-15T07:17:35.330Z,61117.94
2023-05-15T07:20:06.274Z,60968.53
2023-05-15T07:22:41.562Z,61018.31
2023-05-15T07:25:17.482Z,58186.22
2023-05-15T07:27:46.102Z,58066.75
2023-05-15T07:30:15.456Z,57069.56
2023-05-15T07:32:45.727Z,56978.00
2023-05-15T07:35:14.513Z,56201.97
2023-05-15T07:37:42.895Z,55650.88
2023-05-15T07:40:12.137Z,55145.63
2023-05-15T07:42:40.913Z,55366.41
2023-05-15T07:45:10.425Z,55123.75
2023-05-15T07:47:39.135Z,54910.91
2023-05-15T07:50:10.160Z,54942.75
2023-05-15T07:52:38.839Z,55046.16
2023-05-15T07:55:08.162Z,55018.31
2023-05-15T07:57:36.853Z,55195.34
2023-05-15T08:00:09.241Z,54743.84
2023-05-15T08:02:46.333Z,54614.59
2023-05-15T08:05:17.029Z,54851.25
2023-05-15T08:07:45.641Z,55101.84
2023-05-15T08:10:14.194Z,54932.78
2023-05-15T08:12:46.321Z,55012.34
2023-05-15T08:15:15.250Z,54773.69
2023-05-15T08:17:43.834Z,54727.94
2023-05-15T08:20:13.721Z,54735.91
2023-05-15T08:22:44.138Z,54533.06
2023-05-15T08:25:12.563Z,54660.31
2023-05-15T08:27:41.083Z,54302.38
2023-05-15T08:30:10.577Z,54222.84
2023-05-15T08:32:39.258Z,54103.53
2023-05-15T08:35:09.283Z,54077.69
2023-05-15T08:37:37.826Z,54135.34
2023-05-15T08:40:09.482Z,54155.22
2023-05-15T08:42:44.681Z,54010.06
2023-05-15T08:45:14.397Z,54006.09
2023-05-15T08:47:44.405Z,54101.53
2023-05-15T08:50:15.339Z,54000.13
2023-05-15T08:52:45.713Z,53928.56
2023-05-15T08:55:16.767Z,53920.59
2023-05-15T08:57:46.356Z,53914.63
2023-05-15T09:00:16.249Z,53926.56
2023-05-15T09:02:45.006Z,53880.84
2023-05-15T09:05:14.040Z,53817.22
2023-05-15T09:07:46.830Z,53753.59
2023-05-15T09:10:19.091Z,53773.47
2023-05-15T09:12:48.593Z,53743.66
2023-05-15T09:15:22.321Z,53795.34
2023-05-15T09:17:52.910Z,53793.34
2023-05-15T09:20:30.905Z,53684.00
2023-05-15T09:23:01.855Z,53767.50
2023-05-15T09:25:37.785Z,53729.72
2023-05-15T09:28:07.880Z,53695.94
2023-05-15T09:30:39.732Z,53721.78
2023-05-15T09:33:10.329Z,53668.09
2023-05-15T09:35:40.853Z,53628.31
2023-05-15T09:38:11.654Z,53602.47
2023-05-15T09:40:42.557Z,53624.34
2023-05-15T09:43:13.214Z,53606.47
2023-05-15T09:45:43.374Z,53600.50
2023-05-15T09:48:13.081Z,53654.19
2023-05-15T09:50:43.556Z,53602.47
2023-05-15T09:53:14.782Z,53582.59
2023-05-15T09:55:45.767Z,53578.63
2023-05-15T09:58:16.778Z,53560.72
2023-05-15T10:00:49.671Z,53546.81
2023-05-15T10:03:23.149Z,53532.91
2023-05-15T10:06:03.952Z,53489.16
2023-05-15T10:08:34.806Z,53526.94
2023-05-15T10:11:06.269Z,53491.16
2023-05-15T10:13:37.453Z,53475.25
2023-05-15T10:16:07.525Z,53471.28
2023-05-15T10:18:39.292Z,53473.25
2023-05-15T10:21:09.938Z,53427.53
2023-05-15T10:23:42.796Z,53417.59
2023-05-15T10:26:21.437Z,53427.53
2023-05-15T10:28:52.612Z,53455.38
2023-05-15T10:31:22.356Z,53415.59
2023-05-15T10:33:53.268Z,53429.53
2023-05-15T10:36:22.552Z,53405.66
2023-05-15T10:38:53.076Z,53415.59
2023-05-15T10:41:26.571Z,53393.75
2023-05-15T10:43:57.111Z,53395.72
2023-05-15T10:46:26.555Z,53387.78
2023-05-15T10:48:56.005Z,53423.56
2023-05-15T10:51:29.573Z,53399.69
2023-05-15T10:53:59.214Z,53407.66
2023-05-15T10:56:31.902Z,53423.56
2023-05-15T10:59:08.515Z,53415.59
2023-05-15T11:01:38.804Z,53393.75
2023-05-15T11:04:21.770Z,53379.81
2023-05-15T11:06:52.397Z,53346.03
2023-05-15T11:09:38.559Z,53379.81
2023-05-15T11:12:10.678Z,53340.06
2023-05-15T11:14:41.688Z,53344.03
2023-05-15T11:17:12.112Z,53359.94
2023-05-15T11:19:58.835Z,53355.97
2023-05-15T11:22:32.133Z,53338.06
2023-05-15T11:25:02.996Z,53359.94
2023-05-15T11:27:34.687Z,53361.94
2023-05-15T11:30:15.120Z,53338.06
2023-05-15T11:32:53.081Z,53342.06
2023-05-15T11:35:25.239Z,53318.19
2023-05-15T11:37:56.725Z,53320.19
2023-05-15T11:40:28.421Z,53332.09
2023-05-15T11:43:07.371Z,53328.13
2023-05-15T11:45:38.678Z,53330.13
2023-05-15T11:48:13.776Z,53336.09
2023-05-15T11:50:43.434Z,53355.97
2023-05-15T11:53:13.053Z,53353.97
2023-05-15T11:55:44.462Z,53350.00
2023-05-15T11:58:17.003Z,53361.94
2023-05-15T12:00:48.452Z,53352.00
2023-05-15T12:03:19.460Z,53367.91
2023-05-15T12:05:58.295Z,53385.78
2023-05-15T12:08:34.523Z,53363.91
2023-05-15T12:11:04.590Z,53369.88
2023-05-15T12:13:35.680Z,53340.06
2023-05-15T12:16:05.867Z,53367.91
2023-05-15T12:18:35.709Z,53336.09
2023-05-15T12:21:06.191Z,53344.03
2023-05-15T12:23:35.168Z,53344.03
2023-05-15T12:26:05.335Z,53350.00
2023-05-15T12:28:37.663Z,53369.88
2023-05-15T12:31:07.260Z,53320.19
2023-05-15T12:33:36.311Z,53352.00
2023-05-15T12:36:06.027Z,53381.81
2023-05-15T12:38:35.563Z,53361.94
2023-05-15T12:41:04.708Z,53353.97
2023-05-15T12:43:34.310Z,53357.94
2023-05-15T12:46:05.019Z,53296.31
2023-05-15T12:48:34.448Z,53272.47
2023-05-15T12:51:08.354Z,53228.75
2023-05-15T12:53:40.084Z,53228.75
2023-05-15T12:56:10.377Z,53244.63
2023-05-15T12:58:40.550Z,53284.41
2023-05-15T13:01:11.256Z,53264.53
2023-05-15T13:03:40.865Z,53232.72
2023-05-15T13:06:11.434Z,53220.78
2023-05-15T13:08:45.702Z,53198.91
2023-05-15T13:11:15.868Z,53208.84
2023-05-15T13:13:46.807Z,53220.78
2023-05-15T13:16:27.221Z,53282.41
2023-05-15T13:18:57.436Z,53252.59
2023-05-15T13:21:26.501Z,53246.63
2023-05-15T13:23:55.538Z,53294.34
2023-05-15T13:26:24.496Z,53300.31
2023-05-15T13:28:53.542Z,53288.38
2023-05-15T13:31:24.181Z,53308.25
2023-05-15T13:33:53.274Z,53318.19
2023-05-15T13:36:22.355Z,53328.13
2023-05-15T13:38:51.625Z,53320.19
2023-05-15T13:41:21.464Z,53361.94
2023-05-15T13:43:51.862Z,53318.19
2023-05-15T13:46:20.849Z,53367.91
2023-05-15T13:48:51.128Z,53391.75
2023-05-15T13:51:20.320Z,53407.66
2023-05-15T13:53:49.873Z,53403.69
2023-05-15T13:56:19.265Z,53405.66
2023-05-15T13:58:48.391Z,53407.66
2023-05-15T14:01:17.506Z,53473.25
2023-05-15T14:03:46.720Z,53439.47
2023-05-15T14:06:17.086Z,53455.38
2023-05-15T14:08:45.943Z,53475.25
2023-05-15T14:11:14.871Z,53511.03
2023-05-15T14:13:43.648Z,53511.03
2023-05-15T14:16:12.540Z,53515.00
2023-05-15T14:18:41.581Z,53540.84
2023-05-15T14:21:10.541Z,53530.91
2023-05-15T14:23:41.528Z,53540.84
2023-05-15T14:26:10.735Z,53584.59
2023-05-15T14:28:39.939Z,53566.69
2023-05-15T14:31:09.119Z,53614.41
2023-05-15T14:33:38.187Z,53614.41
2023-05-15T14:36:07.352Z,53612.44
2023-05-15T14:38:36.591Z,53574.66
2023-05-15T14:41:07.342Z,53614.41
2023-05-15T14:43:36.319Z,53624.34
2023-05-15T14:46:05.813Z,53584.59
2023-05-15T14:48:35.248Z,53562.72
2023-05-15T14:51:04.256Z,53509.03
2023-05-15T14:53:34.704Z,53491.16
2023-05-15T14:56:03.857Z,53447.41
2023-05-15T14:58:34.264Z,53443.44
2023-05-15T15:01:03.984Z,53457.34
2023-05-15T15:03:34.176Z,53463.31
2023-05-15T15:06:04.594Z,53483.19
2023-05-15T15:08:33.761Z,53528.94
2023-05-15T15:11:03.046Z,53477.22
2023-05-15T15:13:33.526Z,53503.06
2023-05-15T15:16:02.496Z,53483.19
2023-05-15T15:18:31.871Z,53477.22
2023-05-15T15:21:01.025Z,53447.41
2023-05-15T15:23:29.924Z,53479.22
2023-05-15T15:25:58.922Z,53479.22
2023-05-15T15:28:29.468Z,53495.13
2023-05-15T15:30:59.810Z,53463.31
2023-05-15T15:33:28.752Z,53491.16
2023-05-15T15:35:57.620Z,53463.31
2023-05-15T15:38:26.537Z,53475.25
2023-05-15T15:40:55.433Z,53489.16
2023-05-15T15:43:24.517Z,53475.25
2023-05-15T15:45:55.436Z,53507.06
2023-05-15T15:48:26.074Z,53495.13
2023-05-15T15:50:55.320Z,53515.00
2023-05-15T15:53:24.695Z,53505.06
2023-05-15T15:55:53.478Z,53562.72
2023-05-15T15:58:22.494Z,53534.88
2023-05-15T16:00:51.798Z,53556.75
2023-05-15T16:03:21.052Z,53590.56
2023-05-15T16:05:51.778Z,53578.63
2023-05-15T16:08:21.057Z,53580.63
2023-05-15T16:10:50.186Z,53562.72
2023-05-15T16:13:19.133Z,53590.56
2023-05-15T16:15:48.210Z,53598.50
2023-05-15T16:18:17.367Z,53594.53
2023-05-15T16:20:46.604Z,53608.44
2023-05-15T16:23:16.928Z,53606.47
2023-05-15T16:25:46.333Z,53628.31
2023-05-15T16:28:16.086Z,53646.22
2023-05-15T16:30:49.463Z,53622.38
2023-05-15T16:33:19.315Z,53606.47
2023-05-15T16:35:49.150Z,53598.50
2023-05-15T16:38:19.672Z,53598.50
2023-05-15T16:40:48.801Z,53606.47
2023-05-15T16:43:18.318Z,53556.75
2023-05-15T16:45:47.534Z,53614.41
2023-05-15T16:48:16.605Z,53600.50
2023-05-15T16:50:46.065Z,53616.41
2023-05-15T16:53:15.536Z,53610.44
2023-05-15T16:55:47.219Z,53590.56
2023-05-15T16:58:16.283Z,53590.56
2023-05-15T17:00:45.626Z,53620.38
2023-05-15T17:03:14.797Z,53602.47
2023-05-15T17:05:44.156Z,53622.38
2023-05-15T17:08:13.277Z,53626.34
2023-05-15T17:10:42.443Z,53658.16
2023-05-15T17:13:12.818Z,53646.22
2023-05-15T17:15:42.044Z,53658.16
2023-05-15T17:18:11.271Z,53678.03
2023-05-15T17:20:40.256Z,53697.91
2023-05-15T17:23:09.400Z,53703.88
2023-05-15T17:25:38.480Z,53727.75
2023-05-15T17:28:07.475Z,53759.56
2023-05-15T17:30:37.941Z,53769.50
2023-05-15T17:33:06.830Z,53769.50
2023-05-15T17:35:35.680Z,53787.38
2023-05-15T17:38:04.635Z,53817.22
2023-05-15T17:40:34.049Z,53878.84
2023-05-15T17:43:02.565Z,53890.78
2023-05-15T17:45:31.200Z,53936.50
2023-05-15T17:48:03.907Z,53916.63
2023-05-15T17:50:33.723Z,53958.38
2023-05-15T17:53:02.341Z,53972.28
2023-05-15T17:55:31.146Z,54000.13
2023-05-15T17:58:00.149Z,54010.06
2023-05-15T18:00:30.983Z,54053.81
2023-05-15T18:03:02.017Z,54039.91
2023-05-15T18:05:31.509Z,54063.75
2023-05-15T18:08:03.622Z,54075.69
2023-05-15T18:10:32.557Z,54091.59
2023-05-15T18:13:01.403Z,54093.59
2023-05-15T18:15:31.984Z,54103.53
2023-05-15T18:18:02.107Z,54079.66
2023-05-15T18:20:31.125Z,54093.59
2023-05-15T18:22:59.903Z,54049.84
2023-05-15T18:25:30.849Z,54055.81
2023-05-15T18:27:59.729Z,54051.81
2023-05-15T18:30:31.628Z,54071.72
2023-05-15T18:33:02.041Z,54024.00
2023-05-15T18:35:30.960Z,54024.00
2023-05-15T18:38:01.098Z,54006.09
2023-05-15T18:40:29.721Z,54008.09
2023-05-15T18:42:59.083Z,53968.31
2023-05-15T18:45:28.243Z,53990.19
2023-05-15T18:47:57.311Z,53948.44
2023-05-15T18:50:28.147Z,53982.25
2023-05-15T18:52:56.862Z,54000.13
2023-05-15T18:55:27.608Z,54024.00
2023-05-15T18:57:56.735Z,54006.09
2023-05-15T19:00:37.074Z,54018.03
2023-05-15T19:03:06.762Z,54051.81
2023-05-15T19:05:37.206Z,54067.75
2023-05-15T19:08:05.737Z,54081.66
2023-05-15T19:10:34.397Z,54083.66
2023-05-15T19:13:03.257Z,54091.59
2023-05-15T19:15:32.289Z,54119.44
2023-05-15T19:18:01.154Z,54111.47
2023-05-15T19:20:29.854Z,54163.19
2023-05-15T19:22:59.926Z,54147.28
2023-05-15T19:25:28.871Z,54157.22
2023-05-15T19:27:57.664Z,54218.84
2023-05-15T19:30:26.478Z,54200.97
2023-05-15T19:32:55.813Z,54250.69
2023-05-15T19:35:24.777Z,54320.28
2023-05-15T19:37:53.515Z,54379.94
2023-05-15T19:40:23.744Z,54377.94
2023-05-15T19:42:52.725Z,54409.75
2023-05-15T19:45:21.571Z,54493.28
2023-05-15T19:47:50.350Z,54560.91
2023-05-15T19:50:19.367Z,54654.38
2023-05-15T19:52:48.144Z,54704.09
2023-05-15T19:55:16.816Z,54823.41
2023-05-15T19:57:47.069Z,54994.47
2023-05-15T20:00:16.479Z,55107.81
2023-05-15T20:02:45.069Z,55191.38
2023-05-15T20:05:13.664Z,55404.19
2023-05-15T20:07:43.270Z,55609.09
2023-05-15T20:10:14.751Z,55768.25
2023-05-15T20:12:43.714Z,56003.00
2023-05-15T20:15:15.343Z,56104.47
2023-05-15T20:17:44.671Z,56335.25
2023-05-15T20:20:13.944Z,56452.66
2023-05-15T20:22:45.219Z,56637.72
2023-05-15T20:25:15.405Z,56908.34
2023-05-15T20:27:44.285Z,57013.81
2023-05-15T20:30:15.195Z,57115.31
2023-05-15T20:32:44.448Z,57346.19
2023-05-15T20:35:13.269Z,57306.38
2023-05-15T20:37:43.058Z,57756.22
2023-05-15T20:40:13.195Z,57863.72
2023-05-15T20:42:42.077Z,57652.72
2023-05-15T20:45:11.723Z,57672.63
2023-05-15T20:47:41.866Z,57921.44
2023-05-15T20:50:12.326Z,57951.31
2023-05-15T20:52:41.172Z,57825.91
2023-05-15T20:55:16.266Z,57927.41
2023-05-15T20:57:45.837Z,58126.50
2023-05-15T21:00:16.739Z,58297.69
2023-05-15T21:02:51.622Z,58932.84
2023-05-15T21:05:20.422Z,60044.16
2023-05-15T21:07:49.068Z,60586.00
2023-05-15T21:10:18.013Z,61996.78
2023-05-15T21:12:46.748Z,63384.22
2023-05-15T21:15:15.653Z,65586.16
2023-05-15T21:17:44.222Z,66366.34
2023-05-15T21:20:15.059Z,69504.88
2023-05-15T21:22:43.517Z,73234.09
2023-05-15T21:25:12.406Z,75538.44
2023-05-15T21:27:42.141Z,74258.06
2023-05-15T21:30:12.050Z,77331.78
2023-05-15T21:32:40.695Z,78869.66
2023-05-15T21:35:10.189Z,81947.50
2023-05-15T21:37:40.020Z,81434.31
2023-05-15T21:40:09.825Z,83487.44
2023-05-15T21:42:38.503Z,85028.06
2023-05-15T21:45:08.347Z,86055.56
2023-05-15T21:47:36.869Z,88882.69
2023-05-15T21:50:06.283Z,90940.22
2023-05-15T21:52:34.701Z,89911.31
2023-05-15T21:55:05.100Z,90682.97
2023-05-15T21:57:33.798Z,92226.81
2023-05-15T22:00:02.618Z,92226.81
2023-05-15T22:02:34.411Z,91969.47
2023-05-15T22:05:03.024Z,95574.19
2023-05-15T22:07:31.673Z,95059.00
2023-05-15T22:10:00.146Z,94028.84
2023-05-15T22:12:30.109Z,95831.81
2023-05-15T22:14:59.706Z,97120.22
2023-05-15T22:17:29.391Z,97377.97
2023-05-15T22:20:07.022Z,97893.50
2023-05-15T22:22:37.146Z,98409.13
2023-05-15T22:25:06.936Z,98666.94
2023-05-15T22:27:37.153Z,97893.50
2023-05-15T22:30:06.548Z,99182.69
2023-05-15T22:32:35.266Z,98924.81
2023-05-15T22:35:04.437Z,98666.94
2023-05-15T22:37:32.928Z,99698.47
2023-05-15T22:40:01.687Z,99698.47
2023-05-15T22:42:30.736Z,99956.41
2023-05-15T22:45:01.147Z,100988.31
2023-05-15T22:47:29.951Z,99182.69
2023-05-15T22:49:58.388Z,99698.47
2023-05-15T22:52:26.907Z,100988.31
2023-05-15T22:54:55.536Z,102278.66
2023-05-15T22:57:24.344Z,103053.06
2023-05-15T22:59:52.824Z,102794.91
2023-05-15T23:02:22.811Z,102536.75
2023-05-15T23:04:51.219Z,104344.16
2023-05-15T23:07:19.582Z,105377.34
2023-05-15T23:09:48.202Z,105377.34
2023-05-15T23:12:16.884Z,106410.88
2023-05-15T23:14:45.515Z,106669.31
2023-05-15T23:17:14.314Z,106410.88
2023-05-15T23:19:44.366Z,106927.75
2023-05-15T23:22:13.382Z,107703.22
2023-05-15T23:24:41.754Z,107961.72
2023-05-15T23:27:10.256Z,107961.72
2023-05-15T23:29:38.707Z,108220.28
2023-05-15T23:32:08.263Z,107961.72
2023-05-15T23:34:36.723Z,107186.22
2023-05-15T23:37:07.009Z,107961.72
2023-05-15T23:39:36.186Z,107703.22
2023-05-15T23:42:04.592Z,107703.22
2023-05-15T23:44:33.155Z,106152.47
2023-05-15T23:47:01.919Z,106927.75
2023-05-15T23:49:32.852Z,106927.75
2023-05-15T23:52:01.383Z,107186.22
2023-05-15T23:54:31.275Z,107703.22
2023-05-15T23:56:59.759Z,107186.22
2023-05-15T23:59:28.643Z,106927.75
